createdAt,value
2017-01-12T14:51:30.482Z,6.1
2017-01-12T15:01:44.987Z,5.8
2017-01-12T15:11:59.688Z,5.6
2017-01-12T15:22:12.796Z,5.5
2017-01-12T15:32:27.647Z,5.5
2017-01-12T15:42:42.062Z,5.5
2017-01-12T15:52:55.221Z,5.6
2017-01-12T16:03:08.946Z,5.5
2017-01-12T16:13:23.142Z,5.4
2017-01-12T16:23:36.639Z,5.2
2017-01-12T16:33:50.145Z,5.4
2017-01-12T16:44:03.302Z,5.5
2017-01-12T16:54:17.016Z,5.3
2017-01-12T17:04:31.876Z,5.3
2017-01-12T17:14:45.101Z,5
2017-01-12T17:24:59.798Z,4.9
2017-01-12T17:35:13.221Z,4.9
2017-01-12T17:45:27.307Z,4.9
2017-01-12T17:55:42.397Z,4.9
2017-01-12T18:05:56.322Z,4.7
2017-01-12T18:16:09.472Z,4.6
2017-01-12T18:26:24.517Z,4.7
2017-01-12T18:36:37.640Z,4.7
2017-01-12T18:46:51.754Z,4.5
2017-01-12T18:57:05.473Z,4.5
2017-01-12T19:07:19.085Z,4.6
2017-01-12T19:17:32.339Z,4.5
2017-01-12T19:27:45.905Z,4.2
2017-01-12T19:38:00.598Z,4.2
2017-01-12T19:48:13.875Z,4.2
2017-01-12T19:58:28.870Z,4.1
2017-01-12T20:08:42.102Z,3.8
2017-01-12T20:18:56.416Z,3.8
2017-01-12T20:29:10.416Z,3.8
2017-01-12T20:39:24.166Z,3.9
2017-01-12T20:49:38.451Z,3.8
2017-01-12T20:59:53.234Z,3.7
2017-01-12T21:10:07.383Z,3.6
2017-01-12T21:20:22.534Z,3.4
2017-01-12T21:30:36.673Z,3.2
2017-01-12T21:40:50.867Z,3.1
2017-01-12T21:51:04.407Z,3.1
2017-01-12T22:01:18.598Z,3
2017-01-12T22:11:32.312Z,3
2017-01-12T22:21:47.244Z,3
2017-01-12T22:32:01.080Z,3
2017-01-12T22:42:15.787Z,2.9
2017-01-12T22:52:29.308Z,2.7
2017-01-12T23:02:44.199Z,2.7
2017-01-12T23:12:57.549Z,2.7
2017-01-12T23:23:11.340Z,2.7
2017-01-12T23:33:24.554Z,2.7
2017-01-12T23:43:38.038Z,2.6
2017-01-12T23:53:51.558Z,2.4
